HESC

St Catherine International Airport

Egypt
TAF HESC 211700Z 2118/2224 28012KT CAVOK BECMG 2120/2122 VRB03KT BECMG 2206/2208 31013KT
Issued Valid From Valid To
Jul-21 @ 17:00 UTC
(6 hours ago)
Jul-21 @ 18:00 UTC
(5 hours ago)
Jul-23 @ 00:00 UTC
(-1 days ago)
Expired Click to View Jul-21 @ 18:00 to Jul-21 @ 20:00
TAF HESC 211700Z 2118/2224 28012KT CAVOK
Wind Visibility Clouds Conditions
280° at 12 knots 10,000+ meters
  • No significant clouds
Becoming Jul-21 @ 20:00 to Jul-22 @ 06:00
BECMG 2120/2122 VRB03KT
Wind Visibility Clouds Conditions
Variable at 3 knots 10,000+ meters
  • No significant clouds
Becoming Jul-22 @ 06:00 to Jul-23 @ 00:00
BECMG 2206/2208 31013KT
Wind Visibility Clouds Conditions
310° at 13 knots 10,000+ meters
  • No significant clouds
TAF HESC 211700Z 2118/2224 28012KT CAVOK BECMG 2120/2122 VRB03KT BECMG 2206/2208 31013KT
Issued Jul-21 @ 17:00 UTC
(6 hours ago)
Valid From Jul-21 @ 18:00 UTC
(5 hours ago)
Valid To Jul-23 @ 00:00 UTC
(-1 days ago)
Jul-21 @ 18:00 - Jul-21 @ 20:00
Wind Visibility
280° at 12 knots 10,000+ meters
Clouds
  • No significant clouds
Conditions
Becoming Jul-21 @ 20:00 - Jul-22 @ 06:00
Wind Visibility
Variable at 3 knots 10,000+ meters
Clouds
  • No significant clouds
Conditions
Becoming Jul-22 @ 06:00 - Jul-23 @ 00:00
Wind Visibility
310° at 13 knots 10,000+ meters
Clouds
  • No significant clouds
Conditions